Time;durP1;ratioP1;P1;durP2;ratioP2;P2;SDS_P1;SDS_P2;PMS_P1;PMS_P2;Temp;Humidity;BMP_temperature;BMP_pressure;BME280_temperature;BME280_humidity;BME280_pressure;Samples;Min_cycle;Max_cycle;Signal;HPM_P1;HPM_P2
2023/06/12 00:02:09;;;;;;;12.52;11.93;;;;;;;;;;4989316;28;20026;-63
2023/06/12 00:04:35;;;;;;;12.55;11.95;;;;;;;;;;4991667;28;20022;-62
2023/06/12 00:07:01;;;;;;;12.35;11.75;;;;;;;;;;4982293;28;20015;-61
2023/06/12 00:09:27;;;;;;;12.40;11.80;;;;;;;;;;4992874;28;20038;-62
2023/06/12 00:11:52;;;;;;;13.65;12.90;;;;;;;;;;4997048;28;20022;-61
2023/06/12 00:14:18;;;;;;;12.10;11.50;;;;;;;;;;4994814;28;20019;-63
2023/06/12 00:16:43;;;;;;;12.50;11.90;;;;;;;;;;4984758;28;20046;-62
2023/06/12 00:19:09;;;;;;;12.75;12.05;;;;;;;;;;4994523;28;20027;-63
2023/06/12 00:21:35;;;;;;;12.57;11.98;;;;;;;;;;4987567;28;20034;-63
2023/06/12 00:24:00;;;;;;;12.45;11.85;;;;;;;;;;4987501;28;20022;-63
2023/06/12 00:26:26;;;;;;;12.40;11.80;;;;;;;;;;4985370;28;20050;-62
2023/06/12 00:28:51;;;;;;;12.13;11.52;;;;;;;;;;4991742;28;20038;-63
2023/06/12 00:31:16;;;;;;;12.30;11.70;;;;;;;;;;4991515;28;20026;-63
2023/06/12 00:33:42;;;;;;;13.00;12.30;;;;;;;;;;4987114;28;20455;-63
2023/06/12 00:36:07;;;;;;;13.15;12.45;;;;;;;;;;4985288;28;20030;-63
2023/06/12 00:38:34;;;;;;;12.80;12.10;;;;;;;;;;4989741;28;20015;-63
2023/06/12 00:41:00;;;;;;;12.20;11.60;;;;;;;;;;4983560;28;20410;-63
2023/06/12 00:43:25;;;;;;;12.20;11.60;;;;;;;;;;4987784;28;20031;-63
2023/06/12 00:45:50;;;;;;;12.30;11.70;;;;;;;;;;4986138;28;20030;-63
2023/06/12 00:48:16;;;;;;;13.35;12.65;;;;;;;;;;4998012;28;20138;-63
2023/06/12 00:50:41;;;;;;;12.40;11.80;;;;;;;;;;4982885;28;20512;-63
2023/06/12 00:53:07;;;;;;;11.85;11.30;;;;;;;;;;4987231;28;20022;-63
2023/06/12 00:55:33;;;;;;;12.43;11.82;;;;;;;;;;4991192;28;20022;-63
2023/06/12 00:58:00;;;;;;;11.63;11.13;;;;;;;;;;4993008;28;20382;-63
2023/06/12 01:00:27;;;;;;;12.55;11.95;;;;;;;;;;4983276;28;20034;-63
2023/06/12 01:03:03;;;;;;;13.43;12.68;;;;;;;;;;4988382;28;20077;-63
2023/06/12 01:05:34;;;;;;;12.10;11.50;;;;;;;;;;4989820;28;20034;-63
2023/06/12 01:08:17;;;;;;;11.68;11.18;;;;;;;;;;4980616;28;20117;-62
2023/06/12 01:10:50;;;;;;;13.25;12.55;;;;;;;;;;4991153;28;20027;-63
2023/06/12 01:13:17;;;;;;;13.15;12.45;;;;;;;;;;4986661;28;20037;-63
2023/06/12 01:15:43;;;;;;;13.73;12.98;;;;;;;;;;4993508;28;20076;-63
2023/06/12 01:18:08;;;;;;;12.43;11.82;;;;;;;;;;4985061;28;20023;-63
2023/06/12 01:20:34;;;;;;;12.48;11.88;;;;;;;;;;4991399;28;20045;-63
2023/06/12 01:23:29;;;;;;;12.50;11.90;;;;;;;;;;4995013;28;20073;-63
2023/06/12 01:26:13;;;;;;;12.23;11.63;;;;;;;;;;4952292;28;20101;-63
2023/06/12 01:28:39;;;;;;;12.35;11.75;;;;;;;;;;4994787;28;20030;-64
2023/06/12 01:31:23;;;;;;;12.18;11.57;;;;;;;;;;4994401;28;20034;-63
2023/06/12 01:34:09;;;;;;;12.15;11.55;;;;;;;;;;4992310;28;20089;-64
2023/06/12 01:36:36;;;;;;;12.88;12.18;;;;;;;;;;4995590;28;20375;-63
2023/06/12 01:39:04;;;;;;;12.23;11.63;;;;;;;;;;5000648;28;20018;-62
2023/06/12 01:41:31;;;;;;;13.05;12.35;;;;;;;;;;4997481;28;20046;-64
2023/06/12 01:43:56;;;;;;;11.80;11.30;;;;;;;;;;4986428;28;20030;-63
2023/06/12 01:46:21;;;;;;;12.40;11.80;;;;;;;;;;4994415;28;20025;-63
2023/06/12 01:48:46;;;;;;;12.43;11.82;;;;;;;;;;4991532;28;20397;-63
2023/06/12 01:51:12;;;;;;;13.13;12.43;;;;;;;;;;5007153;28;20029;-62
2023/06/12 01:53:37;;;;;;;12.25;11.65;;;;;;;;;;4994736;28;20506;-63
2023/06/12 01:56:02;;;;;;;11.98;11.38;;;;;;;;;;4994501;28;20018;-63
2023/06/12 01:58:28;;;;;;;12.20;11.60;;;;;;;;;;4993659;28;20023;-62
2023/06/12 02:00:53;;;;;;;12.95;12.27;;;;;;;;;;4995250;28;20433;-63
2023/06/12 02:03:20;;;;;;;12.23;11.63;;;;;;;;;;4994720;28;20109;-63
2023/06/12 02:05:45;;;;;;;12.85;12.15;;;;;;;;;;4993488;28;20081;-63
2023/06/12 02:08:11;;;;;;;12.52;11.93;;;;;;;;;;4981479;28;20022;-63
2023/06/12 02:10:36;;;;;;;11.52;11.02;;;;;;;;;;4994807;28;20041;-63
2023/06/12 02:13:01;;;;;;;11.95;11.35;;;;;;;;;;4992163;28;20022;-63
2023/06/12 02:15:28;;;;;;;12.02;11.43;;;;;;;;;;4992421;28;20022;-62
2023/06/12 02:17:53;;;;;;;12.20;11.60;;;;;;;;;;4992450;28;20102;-63
2023/06/12 02:20:18;;;;;;;13.02;12.32;;;;;;;;;;4980774;28;20122;-63
2023/06/12 02:22:45;;;;;;;12.45;11.85;;;;;;;;;;4991509;28;20481;-63
2023/06/12 02:25:10;;;;;;;12.10;11.50;;;;;;;;;;4985783;28;20030;-63
2023/06/12 02:27:35;;;;;;;12.05;11.45;;;;;;;;;;4987950;28;20528;-63
2023/06/12 02:30:01;;;;;;;11.85;11.25;;;;;;;;;;4993854;28;20034;-63
2023/06/12 02:32:27;;;;;;;12.80;12.10;;;;;;;;;;4987548;28;20021;-63
2023/06/12 02:34:54;;;;;;;12.18;11.57;;;;;;;;;;4992426;28;20022;-63
2023/06/12 02:37:19;;;;;;;12.52;11.93;;;;;;;;;;4985197;28;20022;-63
2023/06/12 02:39:45;;;;;;;11.98;11.38;;;;;;;;;;4987797;28;20549;-63
2023/06/12 02:42:10;;;;;;;12.90;12.23;;;;;;;;;;4986152;28;20018;-63
2023/06/12 02:44:35;;;;;;;12.95;12.25;;;;;;;;;;4989331;28;20034;-62
2023/06/12 02:47:01;;;;;;;12.00;11.40;;;;;;;;;;4989121;28;20549;-62
2023/06/12 02:49:27;;;;;;;12.80;12.10;;;;;;;;;;4992030;28;20025;-62
2023/06/12 02:51:52;;;;;;;12.93;12.23;;;;;;;;;;4988412;28;20025;-62
2023/06/12 02:54:19;;;;;;;12.40;11.80;;;;;;;;;;4991027;28;20097;-63
2023/06/12 02:56:47;;;;;;;12.40;11.80;;;;;;;;;;4988845;28;20481;-62
2023/06/12 02:59:14;;;;;;;13.40;12.65;;;;;;;;;;4992183;28;20073;-62
2023/06/12 03:01:43;;;;;;;12.80;12.10;;;;;;;;;;4991262;28;20038;-63
2023/06/12 03:04:09;;;;;;;12.82;12.13;;;;;;;;;;4987681;28;20397;-62
2023/06/12 03:06:34;;;;;;;12.77;12.13;;;;;;;;;;4985105;28;20654;-63
2023/06/12 03:09:02;;;;;;;13.30;12.60;;;;;;;;;;4980642;28;20019;-63
2023/06/12 03:11:28;;;;;;;12.40;11.80;;;;;;;;;;4991814;28;20358;-62
2023/06/12 03:13:53;;;;;;;12.00;11.40;;;;;;;;;;4988483;28;20045;-62
2023/06/12 03:16:20;;;;;;;11.98;11.38;;;;;;;;;;4984246;28;20022;-64
2023/06/12 03:18:46;;;;;;;12.98;12.27;;;;;;;;;;4993374;28;20036;-63
2023/06/12 03:21:11;;;;;;;13.20;12.50;;;;;;;;;;4986544;28;20113;-63
2023/06/12 03:23:36;;;;;;;12.85;12.20;;;;;;;;;;4992509;28;20096;-63
2023/06/12 03:26:01;;;;;;;12.70;12.05;;;;;;;;;;4992263;28;20053;-63
2023/06/12 03:28:27;;;;;;;12.20;11.60;;;;;;;;;;4985092;28;20086;-62
2023/06/12 03:30:52;;;;;;;12.18;11.57;;;;;;;;;;4984421;28;20030;-62
2023/06/12 03:33:17;;;;;;;13.18;12.48;;;;;;;;;;4984639;28;20093;-63
2023/06/12 03:35:43;;;;;;;12.65;11.98;;;;;;;;;;4979893;28;20045;-63
2023/06/12 03:38:08;;;;;;;12.55;11.95;;;;;;;;;;4988589;28;20386;-63
2023/06/12 03:40:33;;;;;;;11.95;11.35;;;;;;;;;;4992745;28;20076;-63
2023/06/12 03:42:58;;;;;;;12.50;11.90;;;;;;;;;;4982973;28;20058;-62
2023/06/12 03:45:24;;;;;;;12.75;12.10;;;;;;;;;;4987860;28;20770;-62
2023/06/12 03:47:49;;;;;;;13.25;12.55;;;;;;;;;;4985312;28;20030;-63
2023/06/12 03:50:14;;;;;;;13.38;12.68;;;;;;;;;;4990042;28;20018;-62
2023/06/12 03:52:40;;;;;;;12.43;11.82;;;;;;;;;;4989678;28;20027;-62
2023/06/12 03:55:05;;;;;;;13.30;12.60;;;;;;;;;;4990766;28;20025;-63
2023/06/12 03:57:30;;;;;;;13.02;12.32;;;;;;;;;;4987620;28;20019;-63
2023/06/12 03:59:56;;;;;;;13.00;12.30;;;;;;;;;;4990756;28;20034;-63
2023/06/12 04:02:21;;;;;;;12.45;11.85;;;;;;;;;;4991243;28;20033;-63
2023/06/12 04:04:46;;;;;;;13.25;12.55;;;;;;;;;;4991384;28;20071;-62
2023/06/12 04:07:13;;;;;;;13.10;12.40;;;;;;;;;;4985823;28;20071;-62
2023/06/12 04:09:38;;;;;;;12.82;12.13;;;;;;;;;;4991284;28;20065;-62
2023/06/12 04:12:03;;;;;;;13.82;13.02;;;;;;;;;;4983039;28;20105;-63
2023/06/12 04:14:29;;;;;;;13.38;12.68;;;;;;;;;;4982967;28;20105;-63
2023/06/12 04:16:54;;;;;;;12.45;11.85;;;;;;;;;;4990258;28;20500;-62
2023/06/12 04:19:20;;;;;;;13.05;12.35;;;;;;;;;;4988463;28;20077;-62
2023/06/12 04:21:45;;;;;;;13.15;12.45;;;;;;;;;;4990909;28;20382;-63
2023/06/12 04:24:15;;;;;;;12.90;12.20;;;;;;;;;;4983613;28;20034;-62
2023/06/12 04:26:43;;;;;;;13.40;12.70;;;;;;;;;;4984235;28;20860;-62
2023/06/12 04:29:09;;;;;;;13.10;12.40;;;;;;;;;;4990787;28;20070;-60
2023/06/12 04:31:35;;;;;;;12.43;11.82;;;;;;;;;;4989255;28;20033;-61
2023/06/12 04:34:01;;;;;;;13.10;12.40;;;;;;;;;;4990173;28;20045;-61
2023/06/12 04:36:27;;;;;;;13.73;12.93;;;;;;;;;;4983335;28;20071;-61
2023/06/12 04:38:52;;;;;;;13.30;12.60;;;;;;;;;;4988657;28;20037;-62
2023/06/12 04:41:24;;;;;;;13.57;12.85;;;;;;;;;;4987570;28;20092;-60
2023/06/12 04:43:49;;;;;;;12.52;11.93;;;;;;;;;;4986308;28;20018;-61
2023/06/12 04:46:17;;;;;;;13.07;12.38;;;;;;;;;;4986254;28;20041;-62
2023/06/12 04:48:43;;;;;;;14.63;13.73;;;;;;;;;;4986488;28;20017;-60
2023/06/12 04:51:08;;;;;;;13.15;12.45;;;;;;;;;;4980591;28;20478;-60
2023/06/12 04:53:34;;;;;;;12.40;11.80;;;;;;;;;;4990104;28;20026;-60
2023/06/12 04:56:00;;;;;;;13.02;12.32;;;;;;;;;;4980309;28;20030;-61
2023/06/12 04:58:26;;;;;;;13.00;12.30;;;;;;;;;;4984673;28;20560;-61
2023/06/12 05:00:55;;;;;;;13.27;12.57;;;;;;;;;;4981044;28;20034;-61
2023/06/12 05:03:21;;;;;;;13.02;12.32;;;;;;;;;;4975668;28;20026;-62
2023/06/12 05:05:46;;;;;;;13.05;12.35;;;;;;;;;;4975240;28;20041;-62
2023/06/12 05:08:13;;;;;;;12.65;12.00;;;;;;;;;;4984414;28;20018;-62
2023/06/12 05:10:39;;;;;;;13.18;12.48;;;;;;;;;;4976957;28;20023;-61
2023/06/12 05:13:04;;;;;;;13.07;12.38;;;;;;;;;;4975530;28;20034;-62
2023/06/12 05:15:29;;;;;;;13.00;12.30;;;;;;;;;;4985196;28;20510;-61
2023/06/12 05:17:55;;;;;;;13.05;12.35;;;;;;;;;;4981352;28;20604;-61
2023/06/12 05:20:21;;;;;;;13.13;12.43;;;;;;;;;;4985434;28;20034;-61
2023/06/12 05:22:46;;;;;;;13.25;12.55;;;;;;;;;;4991559;28;20023;-61
2023/06/12 05:25:12;;;;;;;13.02;12.32;;;;;;;;;;4976603;28;20380;-60
2023/06/12 05:27:37;;;;;;;13.88;13.07;;;;;;;;;;4937410;28;1215436;-61
2023/06/12 05:30:04;;;;;;;12.52;11.93;;;;;;;;;;4980441;28;20490;-61
2023/06/12 05:32:29;;;;;;;13.25;12.50;;;;;;;;;;4980006;28;20019;-61
2023/06/12 05:34:55;;;;;;;12.55;11.90;;;;;;;;;;4984085;28;20014;-61
2023/06/12 05:37:20;;;;;;;13.35;12.65;;;;;;;;;;4979029;28;20068;-60
2023/06/12 05:39:45;;;;;;;13.40;12.68;;;;;;;;;;4977779;28;20058;-61
2023/06/12 05:42:11;;;;;;;12.45;11.85;;;;;;;;;;4980484;28;20030;-62
2023/06/12 05:44:36;;;;;;;13.38;12.68;;;;;;;;;;4978109;28;20535;-60
2023/06/12 05:47:01;;;;;;;13.20;12.50;;;;;;;;;;4979333;28;20026;-63
2023/06/12 05:49:27;;;;;;;12.23;11.63;;;;;;;;;;4975721;28;20397;-62
2023/06/12 05:51:52;;;;;;;12.90;12.20;;;;;;;;;;4978038;28;20029;-62
2023/06/12 05:54:17;;;;;;;12.85;12.15;;;;;;;;;;4981664;28;20105;-61
2023/06/12 05:56:43;;;;;;;12.77;12.10;;;;;;;;;;4986682;28;20030;-61
2023/06/12 05:59:08;;;;;;;12.48;11.88;;;;;;;;;;4992544;28;20496;-62
2023/06/12 06:01:34;;;;;;;13.45;12.75;;;;;;;;;;4988524;28;20389;-62
2023/06/12 06:03:59;;;;;;;13.55;12.85;;;;;;;;;;4992257;28;20027;-61
2023/06/12 06:06:25;;;;;;;13.65;12.88;;;;;;;;;;4989490;28;20032;-61
2023/06/12 06:08:50;;;;;;;13.88;13.07;;;;;;;;;;4992601;28;20026;-62
2023/06/12 06:11:15;;;;;;;12.70;12.05;;;;;;;;;;4993600;28;20528;-62
2023/06/12 06:13:43;;;;;;;13.77;12.98;;;;;;;;;;4973619;28;20015;-65
2023/06/12 06:16:10;;;;;;;13.93;13.13;;;;;;;;;;4989394;28;20026;-66
2023/06/12 06:18:36;;;;;;;14.35;13.55;;;;;;;;;;4984609;28;20031;-65
2023/06/12 06:21:01;;;;;;;13.70;12.95;;;;;;;;;;4988853;28;20026;-66
2023/06/12 06:23:27;;;;;;;13.73;12.93;;;;;;;;;;4987599;28;20468;-66
2023/06/12 06:25:52;;;;;;;13.95;13.15;;;;;;;;;;4986685;28;20026;-66
2023/06/12 06:28:17;;;;;;;14.52;13.63;;;;;;;;;;4983513;28;20104;-67
2023/06/12 06:30:43;;;;;;;14.05;13.25;;;;;;;;;;4977539;28;20026;-63
2023/06/12 06:33:08;;;;;;;13.07;12.38;;;;;;;;;;4982314;28;20134;-64
2023/06/12 06:35:34;;;;;;;15.07;14.18;;;;;;;;;;4991522;28;20724;-65
2023/06/12 06:37:59;;;;;;;13.40;12.70;;;;;;;;;;4983523;28;20018;-65
2023/06/12 06:40:25;;;;;;;13.75;12.95;;;;;;;;;;4988548;28;20160;-64
2023/06/12 06:42:50;;;;;;;13.68;12.88;;;;;;;;;;4983473;28;20089;-64
2023/06/12 06:45:15;;;;;;;13.85;13.05;;;;;;;;;;4982285;28;20034;-63
2023/06/12 06:47:41;;;;;;;13.15;12.45;;;;;;;;;;4983758;28;20447;-65
2023/06/12 06:50:06;;;;;;;14.10;13.30;;;;;;;;;;4978908;28;20085;-64
2023/06/12 06:52:31;;;;;;;13.50;12.77;;;;;;;;;;4986677;28;20378;-65
2023/06/12 06:54:57;;;;;;;13.23;12.52;;;;;;;;;;4985447;28;20026;-64
2023/06/12 06:57:23;;;;;;;13.00;12.30;;;;;;;;;;4990479;28;20582;-65
2023/06/12 06:59:48;;;;;;;14.02;13.23;;;;;;;;;;4984114;28;20045;-65
2023/06/12 07:02:13;;;;;;;14.75;13.88;;;;;;;;;;4986986;28;20097;-65
2023/06/12 07:04:38;;;;;;;13.13;12.43;;;;;;;;;;4987693;28;20030;-65
2023/06/12 07:07:04;;;;;;;13.75;12.95;;;;;;;;;;4991112;28;20038;-64
2023/06/12 07:09:29;;;;;;;13.85;13.05;;;;;;;;;;4987866;28;20401;-63
2023/06/12 07:11:55;;;;;;;13.80;13.00;;;;;;;;;;4986053;28;20034;-65
2023/06/12 07:14:20;;;;;;;14.15;13.35;;;;;;;;;;4977803;28;20026;-64
2023/06/12 07:16:45;;;;;;;13.63;12.88;;;;;;;;;;4980273;28;20870;-63
2023/06/12 07:19:11;;;;;;;13.90;13.10;;;;;;;;;;4987408;28;20026;-63
2023/06/12 07:21:36;;;;;;;12.95;12.25;;;;;;;;;;4989358;28;20096;-64
2023/06/12 07:24:02;;;;;;;13.50;12.77;;;;;;;;;;4986940;28;20053;-64
2023/06/12 07:26:28;;;;;;;14.13;13.32;;;;;;;;;;4983427;28;20074;-65
2023/06/12 07:28:53;;;;;;;13.38;12.68;;;;;;;;;;4979793;28;20044;-63
2023/06/12 07:31:18;;;;;;;13.70;12.90;;;;;;;;;;4988262;28;20031;-63
2023/06/12 07:33:44;;;;;;;13.70;12.90;;;;;;;;;;4984317;28;20062;-64
2023/06/12 07:36:10;;;;;;;13.70;12.93;;;;;;;;;;4992777;28;20064;-63
2023/06/12 07:38:36;;;;;;;13.20;12.50;;;;;;;;;;4987986;28;20076;-65
2023/06/12 07:41:01;;;;;;;14.20;13.40;;;;;;;;;;4988265;28;20092;-64
2023/06/12 07:43:26;;;;;;;13.35;12.65;;;;;;;;;;4986105;28;20482;-65
2023/06/12 07:45:51;;;;;;;13.75;12.95;;;;;;;;;;4980836;28;20042;-63
2023/06/12 07:48:17;;;;;;;13.68;12.93;;;;;;;;;;4977865;28;20045;-64
2023/06/12 07:50:42;;;;;;;14.32;13.52;;;;;;;;;;4986848;28;20083;-63
2023/06/12 07:53:08;;;;;;;13.40;12.70;;;;;;;;;;4987750;28;20068;-65
2023/06/12 07:55:34;;;;;;;13.93;13.13;;;;;;;;;;4982520;28;20021;-65
2023/06/12 07:58:00;;;;;;;14.60;13.75;;;;;;;;;;4990200;28;20033;-63
2023/06/12 08:00:26;;;;;;;16.08;15.07;;;;;;;;;;4990069;28;20026;-64
2023/06/12 08:02:56;;;;;;;14.98;14.07;;;;;;;;;;4977196;28;20034;-64
2023/06/12 08:05:22;;;;;;;12.75;12.10;;;;;;;;;;4990025;28;20057;-65
2023/06/12 08:07:47;;;;;;;12.95;12.25;;;;;;;;;;4980877;28;20073;-63
2023/06/12 08:10:12;;;;;;;14.10;13.30;;;;;;;;;;4979608;28;20030;-63
2023/06/12 08:12:38;;;;;;;14.48;13.65;;;;;;;;;;4982050;28;20493;-65
2023/06/12 08:15:03;;;;;;;13.27;12.57;;;;;;;;;;4984780;28;20041;-66
2023/06/12 08:17:29;;;;;;;13.00;12.30;;;;;;;;;;4975867;28;20014;-65
2023/06/12 08:19:55;;;;;;;14.40;13.60;;;;;;;;;;4979307;28;20097;-63
2023/06/12 08:22:20;;;;;;;14.52;13.73;;;;;;;;;;4976742;28;20485;-63
2023/06/12 08:24:46;;;;;;;13.73;12.98;;;;;;;;;;4980716;28;20042;-64
2023/06/12 08:27:11;;;;;;;14.00;13.20;;;;;;;;;;4976665;28;20455;-63
2023/06/12 08:29:38;;;;;;;14.23;13.43;;;;;;;;;;4978180;28;20092;-64
2023/06/12 08:32:04;;;;;;;13.25;12.55;;;;;;;;;;4982191;28;20033;-67
2023/06/12 08:34:30;;;;;;;13.88;13.07;;;;;;;;;;4983454;28;20018;-71
2023/06/12 08:36:56;;;;;;;14.30;13.50;;;;;;;;;;4982808;28;20026;-70
2023/06/12 08:39:21;;;;;;;13.27;12.57;;;;;;;;;;4987074;28;20461;-70
2023/06/12 08:42:07;;;;;;;13.77;12.98;;;;;;;;;;4980922;28;20539;-69
2023/06/12 08:44:32;;;;;;;13.30;12.60;;;;;;;;;;4981126;28;20497;-68
2023/06/12 08:47:00;;;;;;;15.00;14.10;;;;;;;;;;4979699;28;20035;-69
2023/06/12 08:49:25;;;;;;;13.43;12.73;;;;;;;;;;4982016;28;20576;-70
2023/06/12 08:51:51;;;;;;;13.48;12.77;;;;;;;;;;4981461;28;20125;-69
2023/06/12 08:54:17;;;;;;;15.00;14.10;;;;;;;;;;4975967;28;20055;-65
2023/06/12 08:56:43;;;;;;;13.98;13.18;;;;;;;;;;4982381;28;22508;-67
2023/06/12 08:59:09;;;;;;;14.70;13.82;;;;;;;;;;4985494;28;20504;-66
2023/06/12 09:01:36;;;;;;;14.10;13.30;;;;;;;;;;4973547;28;20034;-67
2023/06/12 09:04:03;;;;;;;14.30;13.50;;;;;;;;;;4980516;28;20023;-66
2023/06/12 09:06:32;;;;;;;13.63;12.93;;;;;;;;;;4979857;28;20065;-64
2023/06/12 09:08:58;;;;;;;14.25;13.45;;;;;;;;;;4976351;28;20560;-65
2023/06/12 09:11:23;;;;;;;15.30;14.40;;;;;;;;;;4979156;28;20102;-65
2023/06/12 09:13:50;;;;;;;14.20;13.40;;;;;;;;;;4981561;28;20490;-66
2023/06/12 09:16:15;;;;;;;14.38;13.57;;;;;;;;;;4978618;28;20026;-63
2023/06/12 09:18:50;;;;;;;14.05;13.25;;;;;;;;;;4978707;28;20022;-63
2023/06/12 09:21:16;;;;;;;14.63;13.77;;;;;;;;;;4980423;28;20030;-64
2023/06/12 09:23:43;;;;;;;15.23;14.32;;;;;;;;;;4976108;28;20408;-60
2023/06/12 09:26:15;;;;;;;14.27;13.48;;;;;;;;;;4976995;28;20026;-61
2023/06/12 09:28:44;;;;;;;14.10;13.30;;;;;;;;;;4977975;28;20447;-61
2023/06/12 09:31:09;;;;;;;14.00;13.20;;;;;;;;;;4981630;28;20033;-62
2023/06/12 09:33:41;;;;;;;14.80;13.98;;;;;;;;;;4975264;28;20026;-61
2023/06/12 09:36:10;;;;;;;14.55;13.73;;;;;;;;;;4974121;28;20054;-62
2023/06/12 09:38:35;;;;;;;14.93;14.02;;;;;;;;;;4979201;28;20080;-62
2023/06/12 09:41:03;;;;;;;14.65;13.85;;;;;;;;;;4983433;28;20026;-62
2023/06/12 09:43:28;;;;;;;13.68;12.98;;;;;;;;;;4976350;28;20035;-61
2023/06/12 09:45:54;;;;;;;14.15;13.35;;;;;;;;;;4977294;28;20026;-61
2023/06/12 09:48:19;;;;;;;14.45;13.65;;;;;;;;;;4983504;28;20030;-61
2023/06/12 09:50:45;;;;;;;12.75;12.15;;;;;;;;;;4984626;28;20156;-62
2023/06/12 09:53:20;;;;;;;14.05;13.25;;;;;;;;;;4976385;28;20113;-61
2023/06/12 09:55:46;;;;;;;13.40;12.70;;;;;;;;;;4989900;28;20061;-62
2023/06/12 09:58:14;;;;;;;14.75;13.90;;;;;;;;;;4981906;28;20057;-62
2023/06/12 10:00:40;;;;;;;13.48;12.77;;;;;;;;;;4989137;28;20022;-62
2023/06/12 10:03:06;;;;;;;13.55;12.85;;;;;;;;;;4988291;28;20041;-62
2023/06/12 10:05:35;;;;;;;12.60;12.00;;;;;;;;;;4990923;28;20027;-61
2023/06/12 10:08:01;;;;;;;19.50;18.15;;;;;;;;;;4976441;28;20029;-65
2023/06/12 10:10:26;;;;;;;14.27;13.48;;;;;;;;;;4976271;28;20030;-65
2023/06/12 10:12:52;;;;;;;13.98;13.18;;;;;;;;;;4979177;28;20101;-65
2023/06/12 10:15:17;;;;;;;14.23;13.43;;;;;;;;;;4979697;28;20489;-67
2023/06/12 10:17:43;;;;;;;14.55;13.75;;;;;;;;;;4982009;28;20153;-66
2023/06/12 10:20:10;;;;;;;14.25;13.43;;;;;;;;;;4977773;28;20033;-64
2023/06/12 10:22:35;;;;;;;14.55;13.75;;;;;;;;;;4980123;28;20034;-63
2023/06/12 10:25:02;;;;;;;16.65;15.57;;;;;;;;;;4982646;28;20092;-66
2023/06/12 10:27:28;;;;;;;13.98;13.18;;;;;;;;;;4978875;28;20424;-64
2023/06/12 10:29:55;;;;;;;14.10;13.30;;;;;;;;;;4985650;28;20536;-65
2023/06/12 10:32:20;;;;;;;14.90;14.02;;;;;;;;;;4985144;28;20065;-66
2023/06/12 10:34:48;;;;;;;13.27;12.57;;;;;;;;;;4977626;28;20066;-66
2023/06/12 10:37:25;;;;;;;14.45;13.63;;;;;;;;;;4988354;28;20543;-64
2023/06/12 10:40:06;;;;;;;13.20;12.50;;;;;;;;;;4978289;28;20185;-65
2023/06/12 10:42:39;;;;;;;14.35;13.55;;;;;;;;;;4980906;28;20467;-65
2023/06/12 10:45:13;;;;;;;14.98;14.07;;;;;;;;;;4986008;28;20034;-64
2023/06/12 10:47:38;;;;;;;13.20;12.50;;;;;;;;;;4978667;28;20014;-65
2023/06/12 10:50:05;;;;;;;13.30;12.60;;;;;;;;;;4986454;28;20097;-64
2023/06/12 10:52:30;;;;;;;13.02;12.32;;;;;;;;;;4989287;28;20038;-64
2023/06/12 10:55:16;;;;;;;14.80;13.90;;;;;;;;;;4983705;28;20026;-63
2023/06/12 10:57:48;;;;;;;13.82;13.10;;;;;;;;;;4983882;28;20022;-64
2023/06/12 11:00:16;;;;;;;14.23;13.43;;;;;;;;;;4986709;28;20414;-66
2023/06/12 11:02:42;;;;;;;14.25;13.45;;;;;;;;;;4976481;28;20794;-65
2023/06/12 11:05:08;;;;;;;14.95;14.05;;;;;;;;;;4986446;28;20106;-65
2023/06/12 11:07:33;;;;;;;14.15;13.35;;;;;;;;;;4977627;28;20032;-66
2023/06/12 11:10:07;;;;;;;14.13;13.32;;;;;;;;;;4984990;28;20027;-65
2023/06/12 11:12:32;;;;;;;13.52;12.77;;;;;;;;;;4990893;28;20125;-64
2023/06/12 11:14:58;;;;;;;14.60;13.77;;;;;;;;;;4984110;28;20505;-64
2023/06/12 11:17:23;;;;;;;14.57;13.77;;;;;;;;;;4975558;28;20034;-62
2023/06/12 11:19:48;;;;;;;14.35;13.55;;;;;;;;;;4979987;28;20053;-64
2023/06/12 11:22:14;;;;;;;13.40;12.70;;;;;;;;;;4976763;28;20106;-62
2023/06/12 11:24:39;;;;;;;13.95;13.15;;;;;;;;;;4977235;28;20042;-63
2023/06/12 11:27:05;;;;;;;14.05;13.27;;;;;;;;;;4982134;28;20078;-63
2023/06/12 11:29:34;;;;;;;13.63;12.93;;;;;;;;;;4976105;28;20037;-63
2023/06/12 11:32:04;;;;;;;12.95;12.27;;;;;;;;;;4981867;28;20344;-64
2023/06/12 11:34:36;;;;;;;14.05;13.25;;;;;;;;;;4981584;28;20027;-61
2023/06/12 11:37:27;;;;;;;12.98;12.27;;;;;;;;;;4981329;28;20022;-63
2023/06/12 11:40:00;;;;;;;15.15;14.25;;;;;;;;;;4977782;28;20042;-64
2023/06/12 11:42:25;;;;;;;14.02;13.23;;;;;;;;;;4991982;28;20037;-64
2023/06/12 11:44:51;;;;;;;13.65;12.95;;;;;;;;;;4979983;28;20038;-63
2023/06/12 11:47:18;;;;;;;14.40;13.60;;;;;;;;;;4983721;28;20061;-63
2023/06/12 11:49:43;;;;;;;14.00;13.20;;;;;;;;;;4977968;28;20061;-65
2023/06/12 11:52:09;;;;;;;14.20;13.40;;;;;;;;;;4983621;28;20061;-63
2023/06/12 11:54:57;;;;;;;14.40;13.57;;;;;;;;;;4974907;28;20113;-63
2023/06/12 11:57:27;;;;;;;14.35;13.55;;;;;;;;;;4979625;28;20521;-63
2023/06/12 11:59:56;;;;;;;14.02;13.23;;;;;;;;;;4978972;28;20049;-62
2023/06/12 12:02:32;;;;;;;16.40;15.40;;;;;;;;;;4977402;28;20022;-62
2023/06/12 12:04:58;;;;;;;16.10;15.10;;;;;;;;;;4982541;28;20564;-65
2023/06/12 12:07:24;;;;;;;14.15;13.35;;;;;;;;;;4982370;28;20037;-64
2023/06/12 12:10:00;;;;;;;13.30;12.60;;;;;;;;;;4986356;28;20029;-64
2023/06/12 12:12:26;;;;;;;15.27;14.38;;;;;;;;;;4984031;28;20027;-62
2023/06/12 12:14:51;;;;;;;14.52;13.73;;;;;;;;;;4977972;28;20452;-64
2023/06/12 12:17:16;;;;;;;14.00;13.20;;;;;;;;;;4982106;28;20026;-62
2023/06/12 12:19:42;;;;;;;13.40;12.70;;;;;;;;;;4982360;28;20026;-62
2023/06/12 12:22:10;;;;;;;13.70;12.98;;;;;;;;;;4979175;28;20027;-62
2023/06/12 12:24:36;;;;;;;14.35;13.55;;;;;;;;;;4978770;28;20113;-64
2023/06/12 12:27:02;;;;;;;14.32;13.52;;;;;;;;;;4988830;28;20045;-64
2023/06/12 12:29:27;;;;;;;13.95;13.15;;;;;;;;;;4979840;28;20030;-64
2023/06/12 12:31:54;;;;;;;14.05;13.25;;;;;;;;;;4984076;28;20040;-64
2023/06/12 12:34:20;;;;;;;14.40;13.60;;;;;;;;;;4983659;28;20132;-64
2023/06/12 12:36:47;;;;;;;13.80;13.05;;;;;;;;;;4983717;28;20502;-64
2023/06/12 12:39:12;;;;;;;14.38;13.57;;;;;;;;;;4988910;28;20027;-64
2023/06/12 12:41:38;;;;;;;13.70;12.93;;;;;;;;;;4979498;28;20061;-64
2023/06/12 12:44:03;;;;;;;14.50;13.70;;;;;;;;;;4982326;28;20033;-63
2023/06/12 12:46:28;;;;;;;13.93;13.13;;;;;;;;;;4979184;28;20109;-64
2023/06/12 12:48:54;;;;;;;14.73;13.88;;;;;;;;;;4980462;28;20037;-64
2023/06/12 12:51:19;;;;;;;14.15;13.35;;;;;;;;;;4978427;28;20030;-64
2023/06/12 12:53:45;;;;;;;14.38;13.57;;;;;;;;;;4981240;28;20426;-65
2023/06/12 12:56:10;;;;;;;14.93;14.02;;;;;;;;;;4981481;28;20031;-65
2023/06/12 12:58:36;;;;;;;14.55;13.75;;;;;;;;;;4984719;28;20030;-64
2023/06/12 13:01:02;;;;;;;13.57;12.85;;;;;;;;;;4978842;28;20022;-64
2023/06/12 13:03:32;;;;;;;14.50;13.70;;;;;;;;;;4981346;28;20052;-64
2023/06/12 13:05:57;;;;;;;13.90;13.10;;;;;;;;;;4975835;28;20035;-64
2023/06/12 13:08:23;;;;;;;14.02;13.23;;;;;;;;;;4996311;28;20030;-65
2023/06/12 13:10:48;;;;;;;14.75;13.85;;;;;;;;;;4985022;28;20626;-64
2023/06/12 13:13:13;;;;;;;14.82;13.98;;;;;;;;;;4985187;28;20367;-65
2023/06/12 13:15:39;;;;;;;14.13;13.32;;;;;;;;;;4999180;28;20117;-65
2023/06/12 13:18:04;;;;;;;15.40;14.50;;;;;;;;;;4983610;28;20018;-63
2023/06/12 13:20:29;;;;;;;13.43;12.73;;;;;;;;;;4978497;28;20486;-65
2023/06/12 13:22:55;;;;;;;13.80;13.02;;;;;;;;;;4983232;28;20048;-65
2023/06/12 13:25:20;;;;;;;13.73;12.95;;;;;;;;;;4988549;28;20093;-65
2023/06/12 13:27:46;;;;;;;14.48;13.68;;;;;;;;;;4980018;28;20062;-65
2023/06/12 13:30:11;;;;;;;15.43;14.52;;;;;;;;;;4986743;28;20038;-64
2023/06/12 13:32:37;;;;;;;15.38;14.45;;;;;;;;;;4984231;28;20026;-64
2023/06/12 13:35:02;;;;;;;14.38;13.57;;;;;;;;;;4984428;28;20022;-64
2023/06/12 13:37:27;;;;;;;14.48;13.68;;;;;;;;;;4985036;28;20029;-63
2023/06/12 13:39:53;;;;;;;14.00;13.20;;;;;;;;;;4984614;28;20015;-65
2023/06/12 13:42:18;;;;;;;14.98;14.07;;;;;;;;;;4984004;28;20029;-65
2023/06/12 13:44:43;;;;;;;15.45;14.55;;;;;;;;;;4980225;28;20019;-63
2023/06/12 13:47:08;;;;;;;14.43;13.63;;;;;;;;;;4986342;28;20529;-64
2023/06/12 13:49:34;;;;;;;14.02;13.23;;;;;;;;;;4987942;28;20089;-64
2023/06/12 13:51:59;;;;;;;13.65;12.93;;;;;;;;;;4984686;28;20401;-62
2023/06/12 13:54:25;;;;;;;14.15;13.35;;;;;;;;;;4986933;28;20046;-65
2023/06/12 13:56:50;;;;;;;13.95;13.15;;;;;;;;;;4992622;28;20022;-63
2023/06/12 13:59:16;;;;;;;13.18;12.48;;;;;;;;;;4984617;28;20544;-64
2023/06/12 14:01:42;;;;;;;15.48;14.57;;;;;;;;;;4978610;28;20029;-63
2023/06/12 14:04:07;;;;;;;13.50;12.80;;;;;;;;;;4974789;28;20045;-65
2023/06/12 14:06:33;;;;;;;15.43;14.52;;;;;;;;;;4983831;28;20023;-64
2023/06/12 14:09:00;;;;;;;15.13;14.23;;;;;;;;;;4978098;28;20806;-64
2023/06/12 14:11:26;;;;;;;14.32;13.52;;;;;;;;;;4981420;28;20493;-64
2023/06/12 14:13:52;;;;;;;14.52;13.68;;;;;;;;;;4982787;28;20041;-66